Details From PAJN - Juneau Intl
To PAGY - Skagway
Flight Number -
Tags Generated
Created
Modified
Stats Distance 70 nm / 129 km
Max Altitude 0 ft / 0 m
Waypoints 2
Social Downloads 8
Likes 0
Share VATSIM

Download

Looking for another format? Having issues loading an existing format? Contact us
Advertisement - Login to hide

Notes

Generated

Route

PAJN PAGY

ID Type Via Altitude Latitude Longitude Leg Dist Tot Dist Heading (true) Name
O PAJN APT - 0 ft / 0 m 58.35793˚ -134.59756˚ - 0 nm - -
O PAGY APT - 0 ft / 0 m 59.45657˚ -135.32229˚ 69 nm 69 nm 341° / 341° SKAGWAY

Altitude Profile

Advertisement - Login to hide

PAJN

Details ICAO PAJN (JNU)
Name Juneau Intl
Region USA (Alaska)
Timezone America/Juneau (UTC-9.0)
Stats Elevation 21 ft / 6 m (AMSL)
Location 58.354964° -134.576278°
Runways 1
Magnetic Variation 19.146° E

METAR

PAJN 171753Z 11009KT 4SM RA BR FEW006 BKN028 OVC033 02/02 A2969

Decode

TAF

PAJN 171740Z 1718/1818 10010KT P6SM -SHRA SCT025 BKN035 OVC060 WS020/22020KT TEMPO 1718/1722 6SM -SHRASN FEW005 BKN025 OVC035 FM172200 10008KT P6SM -SHRASN SCT025 OVC035 FM180300 09005KT P6SM VCSH SCT025 OVC040 FM181200 08004KT P6SM OVC050

Decode

Departure Runways

ID Width Length Bearing (true) Bearing (mag) Surface Threshold Offset Overrun Length
08 150 ft / 46 m 8,430 ft / 2,570 m 104.87° 85.72° Asphalt 0 ft / 0 m 450 ft / 137 m
26 150 ft / 46 m 8,430 ft / 2,570 m 284.90° 265.75° Asphalt 0 ft / 0 m 225 ft / 69 m

PAGY

Details ICAO PAGY (SGY)
Name SKAGWAY
Region USA (Alaska)
Timezone America/Juneau (UTC-9.0)
Stats Elevation 44 ft / 13 m (AMSL)
Location 59.460062° -135.315661°
Runways 1
Magnetic Variation 19.347° E

METAR

PAGY 171753Z AUTO 21020KT 10SM SCT070 BKN085 04/02 A2961 RMK AO2 PK WND 21033/1654 SLP026 T00390017 10050 20039 53006 TSNO

Decode

TAF

PAGY 171740Z 1718/1818 21018G28KT P6SM VCSH FEW025 OVC070 FM172300 21012KT P6SM VCSH BKN070 FM180500 VRB04KT P6SM BKN060 FM181500 03006KT P6SM BKN070 AMD LTD TO CLD VIS AND WIND

Decode

Destination Runways

ID Width Length Bearing (true) Bearing (mag) Surface Threshold Offset Overrun Length
02 75 ft / 23 m 3,542 ft / 1,080 m 43.94° 24.59° Asphalt 0 ft / 0 m 299 ft / 91 m
20 75 ft / 23 m 3,542 ft / 1,080 m 223.95° 204.60° Asphalt 0 ft / 0 m 299 ft / 91 m

Popular Alternatives